sensor_id;sensor_type;location;lat;lon;timestamp;pressure;altitude;pressure_sealevel;temperature;humidity
12146;BME280;6136;47.032;15.398;2023-01-25T00:01:48;99015.81;;;2.69;100.00
12146;BME280;6136;47.032;15.398;2023-01-25T00:04:17;99014.09;;;2.65;100.00
12146;BME280;6136;47.032;15.398;2023-01-25T00:06:46;99006.28;;;2.61;100.00
12146;BME280;6136;47.032;15.398;2023-01-25T00:09:15;99003.69;;;2.59;100.00
12146;BME280;6136;47.032;15.398;2023-01-25T00:11:44;99007.19;;;2.58;100.00
12146;BME280;6136;47.032;15.398;2023-01-25T00:14:14;99005.50;;;2.51;100.00
12146;BME280;6136;47.032;15.398;2023-01-25T00:16:42;99009.00;;;2.49;100.00
12146;BME280;6136;47.032;15.398;2023-01-25T00:19:11;99015.16;;;2.42;100.00
12146;BME280;6136;47.032;15.398;2023-01-25T00:21:39;99007.28;;;2.42;100.00
12146;BME280;6136;47.032;15.398;2023-01-25T00:24:07;99009.03;;;2.41;100.00
12146;BME280;6136;47.032;15.398;2023-01-25T00:26:37;99001.25;;;2.35;100.00
12146;BME280;6136;47.032;15.398;2023-01-25T00:29:10;99020.38;;;2.40;100.00
12146;BME280;6136;47.032;15.398;2023-01-25T00:31:49;99011.66;;;2.41;100.00
12146;BME280;6136;47.032;15.398;2023-01-25T00:34:42;99008.13;;;2.47;100.00
12146;BME280;6136;47.032;15.398;2023-01-25T00:37:13;99004.63;;;2.51;100.00
12146;BME280;6136;47.032;15.398;2023-01-25T00:39:45;99005.50;;;2.51;100.00
12146;BME280;6136;47.032;15.398;2023-01-25T00:42:15;99010.75;;;2.45;100.00
12146;BME280;6136;47.032;15.398;2023-01-25T00:44:45;99006.38;;;2.46;100.00
12146;BME280;6136;47.032;15.398;2023-01-25T00:47:15;99009.00;;;2.47;100.00
12146;BME280;6136;47.032;15.398;2023-01-25T00:49:44;99005.56;;;2.39;100.00
12146;BME280;6136;47.032;15.398;2023-01-25T00:52:13;99005.59;;;2.36;100.00
12146;BME280;6136;47.032;15.398;2023-01-25T00:54:41;99020.41;;;2.36;100.00
12146;BME280;6136;47.032;15.398;2023-01-25T00:57:09;99019.59;;;2.29;100.00
12146;BME280;6136;47.032;15.398;2023-01-25T00:59:37;99019.59;;;2.26;100.00
12146;BME280;6136;47.032;15.398;2023-01-25T01:02:11;99018.72;;;2.22;100.00
12146;BME280;6136;47.032;15.398;2023-01-25T01:04:40;99012.69;;;2.16;100.00
12146;BME280;6136;47.032;15.398;2023-01-25T01:07:11;99027.53;;;2.12;100.00
12146;BME280;6136;47.032;15.398;2023-01-25T01:09:39;99024.06;;;2.07;100.00
12146;BME280;6136;47.032;15.398;2023-01-25T01:12:08;99026.69;;;2.03;100.00
12146;BME280;6136;47.032;15.398;2023-01-25T01:14:36;99018.88;;;1.93;100.00
12146;BME280;6136;47.032;15.398;2023-01-25T01:17:04;99022.41;;;1.89;100.00
12146;BME280;6136;47.032;15.398;2023-01-25T01:19:32;99021.56;;;1.84;100.00
12146;BME280;6136;47.032;15.398;2023-01-25T01:22:02;99005.91;;;1.72;100.00
12146;BME280;6136;47.032;15.398;2023-01-25T01:24:30;99023.34;;;1.73;100.00
12146;BME280;6136;47.032;15.398;2023-01-25T01:26:59;99029.41;;;1.80;100.00
12146;BME280;6136;47.032;15.398;2023-01-25T01:29:27;99028.53;;;1.82;100.00
12146;BME280;6136;47.032;15.398;2023-01-25T01:31:55;99023.28;;;1.85;100.00
12146;BME280;6136;47.032;15.398;2023-01-25T01:34:25;99027.63;;;1.89;100.00
12146;BME280;6136;47.032;15.398;2023-01-25T01:36:53;99021.53;;;1.90;100.00
12146;BME280;6136;47.032;15.398;2023-01-25T01:39:24;99030.25;;;1.92;100.00
12146;BME280;6136;47.032;15.398;2023-01-25T01:41:52;99038.94;;;1.94;100.00
12146;BME280;6136;47.032;15.398;2023-01-25T01:44:45;99024.13;;;1.95;100.00
12146;BME280;6136;47.032;15.398;2023-01-25T01:47:17;99031.97;;;1.97;100.00
12146;BME280;6136;47.032;15.398;2023-01-25T01:49:52;99034.56;;;1.98;100.00
12146;BME280;6136;47.032;15.398;2023-01-25T01:52:24;99035.44;;;1.99;100.00
12146;BME280;6136;47.032;15.398;2023-01-25T01:55:00;99034.56;;;1.97;100.00
12146;BME280;6136;47.032;15.398;2023-01-25T01:57:33;99032.78;;;2.00;100.00
12146;BME280;6136;47.032;15.398;2023-01-25T02:00:05;99040.63;;;2.05;100.00
12146;BME280;6136;47.032;15.398;2023-01-25T02:02:38;99038.91;;;2.02;100.00
12146;BME280;6136;47.032;15.398;2023-01-25T02:05:11;99021.47;;;2.01;100.00
12146;BME280;6136;47.032;15.398;2023-01-25T02:07:42;99032.84;;;1.99;100.00
12146;BME280;6136;47.032;15.398;2023-01-25T02:10:16;99031.06;;;2.01;100.00
12146;BME280;6136;47.032;15.398;2023-01-25T02:12:46;99022.34;;;2.03;100.00
12146;BME280;6136;47.032;15.398;2023-01-25T02:15:15;99024.91;;;2.08;100.00
12146;BME280;6136;47.032;15.398;2023-01-25T02:17:43;99017.97;;;2.07;100.00
12146;BME280;6136;47.032;15.398;2023-01-25T02:20:18;99014.47;;;2.08;100.00
12146;BME280;6136;47.032;15.398;2023-01-25T02:22:54;99015.38;;;2.07;100.00
12146;BME280;6136;47.032;15.398;2023-01-25T02:25:25;99020.56;;;2.11;100.00
12146;BME280;6136;47.032;15.398;2023-01-25T02:27:57;99011.00;;;2.07;100.00
12146;BME280;6136;47.032;15.398;2023-01-25T02:30:28;99017.06;;;2.09;100.00
12146;BME280;6136;47.032;15.398;2023-01-25T02:32:56;99007.47;;;2.10;100.00
12146;BME280;6136;47.032;15.398;2023-01-25T02:35:36;99009.22;;;2.11;100.00
12146;BME280;6136;47.032;15.398;2023-01-25T02:38:05;99004.00;;;2.12;100.00
12146;BME280;6136;47.032;15.398;2023-01-25T02:40:42;99012.66;;;2.19;100.00
12146;BME280;6136;47.032;15.398;2023-01-25T02:43:13;99000.47;;;2.21;100.00
12146;BME280;6136;47.032;15.398;2023-01-25T02:45:44;98999.63;;;2.13;100.00
12146;BME280;6136;47.032;15.398;2023-01-25T02:48:13;98997.88;;;2.15;100.00
12146;BME280;6136;47.032;15.398;2023-01-25T02:50:41;98990.09;;;2.07;100.00
12146;BME280;6136;47.032;15.398;2023-01-25T02:53:10;98997.94;;;2.04;100.00
12146;BME280;6136;47.032;15.398;2023-01-25T02:55:40;98987.47;;;2.01;100.00
12146;BME280;6136;47.032;15.398;2023-01-25T02:58:08;98989.22;;;2.05;100.00
12146;BME280;6136;47.032;15.398;2023-01-25T03:00:36;98990.09;;;2.03;100.00
12146;BME280;6136;47.032;15.398;2023-01-25T03:03:04;98981.41;;;1.99;100.00
12146;BME280;6136;47.032;15.398;2023-01-25T03:05:33;98974.44;;;1.95;100.00
12146;BME280;6136;47.032;15.398;2023-01-25T03:08:01;98973.63;;;1.91;100.00
12146;BME280;6136;47.032;15.398;2023-01-25T03:10:29;98974.44;;;1.93;100.00
12146;BME280;6136;47.032;15.398;2023-01-25T03:12:59;98974.44;;;1.93;100.00
12146;BME280;6136;47.032;15.398;2023-01-25T03:15:27;98975.31;;;1.97;100.00
12146;BME280;6136;47.032;15.398;2023-01-25T03:17:56;98968.34;;;1.96;100.00
12146;BME280;6136;47.032;15.398;2023-01-25T03:20:24;98971.84;;;1.93;100.00
12146;BME280;6136;47.032;15.398;2023-01-25T03:22:53;98968.38;;;1.90;100.00
12146;BME280;6136;47.032;15.398;2023-01-25T03:25:22;98962.28;;;1.86;100.00
12146;BME280;6136;47.032;15.398;2023-01-25T03:28:10;98964.03;;;1.86;100.00
12146;BME280;6136;47.032;15.398;2023-01-25T03:30:38;98964.94;;;1.83;100.00
12146;BME280;6136;47.032;15.398;2023-01-25T03:33:06;98964.06;;;1.81;100.00
12146;BME280;6136;47.032;15.398;2023-01-25T03:35:35;98964.94;;;1.82;100.00
12146;BME280;6136;47.032;15.398;2023-01-25T03:38:04;98944.94;;;1.76;100.00
12146;BME280;6136;47.032;15.398;2023-01-25T03:40:32;98960.59;;;1.82;100.00
12146;BME280;6136;47.032;15.398;2023-01-25T03:43:01;98954.50;;;1.83;100.00
12146;BME280;6136;47.032;15.398;2023-01-25T03:45:30;98956.22;;;1.83;100.00
12146;BME280;6136;47.032;15.398;2023-01-25T03:48:03;98950.97;;;1.87;100.00
12146;BME280;6136;47.032;15.398;2023-01-25T03:50:32;98949.25;;;1.85;100.00
12146;BME280;6136;47.032;15.398;2023-01-25T03:53:01;98950.09;;;1.91;100.00
12146;BME280;6136;47.032;15.398;2023-01-25T03:55:34;98950.09;;;1.88;100.00
12146;BME280;6136;47.032;15.398;2023-01-25T03:58:03;98946.59;;;1.89;100.00
12146;BME280;6136;47.032;15.398;2023-01-25T04:00:34;98949.22;;;1.89;100.00
12146;BME280;6136;47.032;15.398;2023-01-25T04:03:02;98952.66;;;1.94;100.00
12146;BME280;6136;47.032;15.398;2023-01-25T04:05:32;98949.19;;;1.97;100.00
12146;BME280;6136;47.032;15.398;2023-01-25T04:08:00;98941.34;;;1.99;100.00
12146;BME280;6136;47.032;15.398;2023-01-25T04:10:36;98934.38;;;1.94;100.00
12146;BME280;6136;47.032;15.398;2023-01-25T04:13:06;98941.34;;;1.95;100.00
12146;BME280;6136;47.032;15.398;2023-01-25T04:15:35;98933.53;;;1.92;100.00
12146;BME280;6136;47.032;15.398;2023-01-25T04:18:12;98936.16;;;1.89;100.00
12146;BME280;6136;47.032;15.398;2023-01-25T04:20:40;98928.31;;;1.91;100.00
12146;BME280;6136;47.032;15.398;2023-01-25T04:23:09;98929.19;;;1.85;100.00
12146;BME280;6136;47.032;15.398;2023-01-25T04:25:38;98928.34;;;1.85;100.00
12146;BME280;6136;47.032;15.398;2023-01-25T04:28:10;98920.50;;;1.83;100.00
12146;BME280;6136;47.032;15.398;2023-01-25T04:30:40;98927.44;;;1.87;100.00
12146;BME280;6136;47.032;15.398;2023-01-25T04:33:08;98926.66;;;1.76;100.00
12146;BME280;6136;47.032;15.398;2023-01-25T04:35:38;98917.13;;;1.63;100.00
12146;BME280;6136;47.032;15.398;2023-01-25T04:38:08;98912.78;;;1.58;100.00
12146;BME280;6136;47.032;15.398;2023-01-25T04:40:40;98931.13;;;1.53;100.00
12146;BME280;6136;47.032;15.398;2023-01-25T04:43:11;98929.38;;;1.49;100.00
12146;BME280;6136;47.032;15.398;2023-01-25T04:45:41;98929.41;;;1.43;100.00
12146;BME280;6136;47.032;15.398;2023-01-25T04:48:18;98926.78;;;1.47;100.00
12146;BME280;6136;47.032;15.398;2023-01-25T04:50:52;98915.47;;;1.47;100.00
12146;BME280;6136;47.032;15.398;2023-01-25T04:53:21;98932.84;;;1.49;100.00
12146;BME280;6136;47.032;15.398;2023-01-25T04:55:50;98936.31;;;1.56;100.00
12146;BME280;6136;47.032;15.398;2023-01-25T04:58:19;98932.81;;;1.60;100.00
12146;BME280;6136;47.032;15.398;2023-01-25T05:00:51;98938.88;;;1.65;100.00
12146;BME280;6136;47.032;15.398;2023-01-25T05:03:20;98940.63;;;1.69;100.00
12146;BME280;6136;47.032;15.398;2023-01-25T05:05:49;98929.31;;;1.67;100.00
12146;BME280;6136;47.032;15.398;2023-01-25T05:08:21;98937.97;;;1.75;100.00
12146;BME280;6136;47.032;15.398;2023-01-25T05:10:51;98938.81;;;1.79;100.00
12146;BME280;6136;47.032;15.398;2023-01-25T05:13:26;98929.25;;;1.76;100.00
12146;BME280;6136;47.032;15.398;2023-01-25T05:16:16;98931.88;;;1.76;100.00
12146;BME280;6136;47.032;15.398;2023-01-25T05:18:45;98924.91;;;1.74;100.00
12146;BME280;6136;47.032;15.398;2023-01-25T05:21:26;98931.88;;;1.75;100.00
12146;BME280;6136;47.032;15.398;2023-01-25T05:24:12;98933.63;;;1.74;100.00
12146;BME280;6136;47.032;15.398;2023-01-25T05:26:41;98929.22;;;1.79;100.00
12146;BME280;6136;47.032;15.398;2023-01-25T05:29:48;98930.09;;;1.80;100.00
12146;BME280;6136;47.032;15.398;2023-01-25T05:32:19;98927.47;;;1.81;100.00
12146;BME280;6136;47.032;15.398;2023-01-25T05:34:48;98927.47;;;1.78;100.00
12146;BME280;6136;47.032;15.398;2023-01-25T05:37:19;98930.97;;;1.85;100.00
12146;BME280;6136;47.032;15.398;2023-01-25T05:39:55;98925.72;;;1.83;100.00
12146;BME280;6136;47.032;15.398;2023-01-25T05:42:23;98925.72;;;1.83;100.00
12146;BME280;6136;47.032;15.398;2023-01-25T05:44:52;98930.94;;;1.88;100.00
12146;BME280;6136;47.032;15.398;2023-01-25T05:47:23;98935.28;;;1.86;100.00
12146;BME280;6136;47.032;15.398;2023-01-25T05:49:54;98942.25;;;1.87;100.00
12146;BME280;6136;47.032;15.398;2023-01-25T05:52:44;98943.16;;;1.81;100.00
12146;BME280;6136;47.032;15.398;2023-01-25T05:55:13;98943.16;;;1.80;100.00
12146;BME280;6136;47.032;15.398;2023-01-25T05:57:42;98942.28;;;1.79;100.00
12146;BME280;6136;47.032;15.398;2023-01-25T06:00:11;98944.03;;;1.85;100.00
12146;BME280;6136;47.032;15.398;2023-01-25T06:02:41;98939.69;;;1.79;100.00
12146;BME280;6136;47.032;15.398;2023-01-25T06:05:15;98950.97;;;1.86;100.00
12146;BME280;6136;47.032;15.398;2023-01-25T06:07:43;98948.38;;;1.81;100.00
12146;BME280;6136;47.032;15.398;2023-01-25T06:10:12;98959.72;;;1.83;100.00
12146;BME280;6136;47.032;15.398;2023-01-25T06:12:41;98957.09;;;1.83;100.00
12146;BME280;6136;47.032;15.398;2023-01-25T06:15:09;98963.19;;;1.79;100.00
12146;BME280;6136;47.032;15.398;2023-01-25T06:17:38;98963.22;;;1.75;100.00
12146;BME280;6136;47.032;15.398;2023-01-25T06:20:09;98969.38;;;1.69;100.00
12146;BME280;6136;47.032;15.398;2023-01-25T06:22:54;98977.16;;;1.71;100.00
12146;BME280;6136;47.032;15.398;2023-01-25T06:25:22;98977.16;;;1.74;100.00
12146;BME280;6136;47.032;15.398;2023-01-25T06:27:53;98969.34;;;1.75;100.00
12146;BME280;6136;47.032;15.398;2023-01-25T06:30:21;98971.91;;;1.81;100.00
12146;BME280;6136;47.032;15.398;2023-01-25T06:32:49;98973.66;;;1.82;100.00
12146;BME280;6136;47.032;15.398;2023-01-25T06:35:19;98965.78;;;1.88;100.00
12146;BME280;6136;47.032;15.398;2023-01-25T06:37:47;98969.25;;;1.87;100.00
12146;BME280;6136;47.032;15.398;2023-01-25T06:40:15;98974.47;;;1.92;100.00
12146;BME280;6136;47.032;15.398;2023-01-25T06:42:44;98976.19;;;1.94;100.00
12146;BME280;6136;47.032;15.398;2023-01-25T06:45:12;98968.34;;;1.93;100.00
12146;BME280;6136;47.032;15.398;2023-01-25T06:47:40;98982.28;;;1.93;100.00
12146;BME280;6136;47.032;15.398;2023-01-25T06:50:09;98983.16;;;1.97;100.00
12146;BME280;6136;47.032;15.398;2023-01-25T06:52:38;98981.41;;;1.98;100.00
12146;BME280;6136;47.032;15.398;2023-01-25T06:55:07;98978.75;;;2.01;100.00
12146;BME280;6136;47.032;15.398;2023-01-25T06:57:39;98988.34;;;2.03;100.00
12146;BME280;6136;47.032;15.398;2023-01-25T07:00:08;98981.38;;;2.04;100.00
12146;BME280;6136;47.032;15.398;2023-01-25T07:02:37;98973.56;;;1.99;100.00
12146;BME280;6136;47.032;15.398;2023-01-25T07:05:06;98976.22;;;1.91;100.00
12146;BME280;6136;47.032;15.398;2023-01-25T07:07:35;98972.63;;;2.08;100.00
12146;BME280;6136;47.032;15.398;2023-01-25T07:10:05;98973.50;;;2.10;100.00
12146;BME280;6136;47.032;15.398;2023-01-25T07:12:33;98970.88;;;2.13;100.00
12146;BME280;6136;47.032;15.398;2023-01-25T07:15:03;98962.16;;;2.11;100.00
12146;BME280;6136;47.032;15.398;2023-01-25T07:17:31;98968.25;;;2.11;100.00
12146;BME280;6136;47.032;15.398;2023-01-25T07:19:59;98971.78;;;2.03;100.00
12146;BME280;6136;47.032;15.398;2023-01-25T07:22:27;98963.06;;;2.02;100.00
12146;BME280;6136;47.032;15.398;2023-01-25T07:24:55;98944.81;;;1.98;100.00
12146;BME280;6136;47.032;15.398;2023-01-25T07:27:26;98949.09;;;2.09;100.00
12146;BME280;6136;47.032;15.398;2023-01-25T07:29:54;98945.59;;;2.12;100.00
12146;BME280;6136;47.032;15.398;2023-01-25T07:32:22;98940.38;;;2.12;100.00
12146;BME280;6136;47.032;15.398;2023-01-25T07:34:50;98938.56;;;2.20;100.00
12146;BME280;6136;47.032;15.398;2023-01-25T07:37:18;98936.00;;;2.14;100.00
12146;BME280;6136;47.032;15.398;2023-01-25T07:39:47;98939.44;;;2.22;100.00
12146;BME280;6136;47.032;15.398;2023-01-25T07:42:16;98933.28;;;2.27;100.00
12146;BME280;6136;47.032;15.398;2023-01-25T07:44:52;98928.94;;;2.26;100.00
12146;BME280;6136;47.032;15.398;2023-01-25T07:47:21;98922.78;;;2.32;100.00
12146;BME280;6136;47.032;15.398;2023-01-25T07:49:49;98930.63;;;2.32;100.00
12146;BME280;6136;47.032;15.398;2023-01-25T07:52:17;98928.94;;;2.28;100.00
12146;BME280;6136;47.032;15.398;2023-01-25T07:54:45;98928.94;;;2.28;100.00
12146;BME280;6136;47.032;15.398;2023-01-25T07:57:15;98933.22;;;2.33;100.00
12146;BME280;6136;47.032;15.398;2023-01-25T07:59:43;98925.41;;;2.32;100.00
12146;BME280;6136;47.032;15.398;2023-01-25T08:02:13;98933.19;;;2.40;100.00
12146;BME280;6136;47.032;15.398;2023-01-25T08:04:41;98932.22;;;2.51;100.00
12146;BME280;6136;47.032;15.398;2023-01-25T08:07:11;98930.31;;;2.68;100.00
12146;BME280;6136;47.032;15.398;2023-01-25T08:09:40;98932.00;;;2.76;100.00
12146;BME280;6136;47.032;15.398;2023-01-25T08:12:08;98936.47;;;2.64;100.00
12146;BME280;6136;47.032;15.398;2023-01-25T08:14:37;98939.03;;;2.67;100.00
12146;BME280;6136;47.032;15.398;2023-01-25T08:17:05;98937.34;;;2.63;100.00
12146;BME280;6136;47.032;15.398;2023-01-25T08:19:35;98937.34;;;2.63;100.00
12146;BME280;6136;47.032;15.398;2023-01-25T08:22:03;98928.56;;;2.70;100.00
12146;BME280;6136;47.032;15.398;2023-01-25T08:24:33;98931.03;;;2.84;100.00
12146;BME280;6136;47.032;15.398;2023-01-25T08:27:02;98931.19;;;2.69;100.00
12146;BME280;6136;47.032;15.398;2023-01-25T08:29:30;98938.06;;;2.81;100.00
12146;BME280;6136;47.032;15.398;2023-01-25T08:31:58;98935.41;;;2.87;100.00
12146;BME280;6136;47.032;15.398;2023-01-25T08:34:30;98926.63;;;2.91;100.00
12146;BME280;6136;47.032;15.398;2023-01-25T08:37:00;98939.78;;;2.85;100.00
12146;BME280;6136;47.032;15.398;2023-01-25T08:39:28;98951.16;;;2.81;100.00
12146;BME280;6136;47.032;15.398;2023-01-25T08:41:57;98946.81;;;2.80;100.00
12146;BME280;6136;47.032;15.398;2023-01-25T08:44:25;98942.47;;;2.76;100.00
12146;BME280;6136;47.032;15.398;2023-01-25T08:46:53;98938.19;;;2.67;100.00
12146;BME280;6136;47.032;15.398;2023-01-25T08:49:22;98937.22;;;2.79;100.00
12146;BME280;6136;47.032;15.398;2023-01-25T08:51:50;98941.59;;;2.75;100.00
12146;BME280;6136;47.032;15.398;2023-01-25T08:54:20;98934.59;;;2.80;100.00
12146;BME280;6136;47.032;15.398;2023-01-25T08:56:48;98934.47;;;2.91;100.00
12146;BME280;6136;47.032;15.398;2023-01-25T08:59:16;98939.56;;;3.06;100.00
12146;BME280;6136;47.032;15.398;2023-01-25T09:01:44;98933.53;;;2.98;100.00
12146;BME280;6136;47.032;15.398;2023-01-25T09:04:12;98928.97;;;3.18;100.00
12146;BME280;6136;47.032;15.398;2023-01-25T09:06:41;98929.84;;;3.17;100.00
12146;BME280;6136;47.032;15.398;2023-01-25T09:09:10;98929.69;;;3.29;100.00
12146;BME280;6136;47.032;15.398;2023-01-25T09:11:40;98931.19;;;3.48;100.00
12146;BME280;6136;47.032;15.398;2023-01-25T09:14:08;98925.81;;;3.62;100.00
12146;BME280;6136;47.032;15.398;2023-01-25T09:16:36;98923.41;;;3.45;100.00
12146;BME280;6136;47.032;15.398;2023-01-25T09:19:04;98921.25;;;3.76;100.00
12146;BME280;6136;47.032;15.398;2023-01-25T09:21:33;98915.81;;;3.92;100.00
12146;BME280;6136;47.032;15.398;2023-01-25T09:24:03;98916.38;;;4.10;100.00
12146;BME280;6136;47.032;15.398;2023-01-25T09:26:35;98929.78;;;3.92;100.00
12146;BME280;6136;47.032;15.398;2023-01-25T09:29:05;98903.66;;;3.84;100.00
12146;BME280;6136;47.032;15.398;2023-01-25T09:31:35;98913.88;;;4.03;100.00
12146;BME280;6136;47.032;15.398;2023-01-25T09:34:24;98913.75;;;4.10;100.00
12146;BME280;6136;47.032;15.398;2023-01-25T09:36:53;98911.97;;;4.14;100.00
12146;BME280;6136;47.032;15.398;2023-01-25T09:39:21;98914.66;;;4.09;100.00
12146;BME280;6136;47.032;15.398;2023-01-25T09:42:15;98905.97;;;4.07;100.00
12146;BME280;6136;47.032;15.398;2023-01-25T09:45:16;98897.47;;;3.90;100.00
12146;BME280;6136;47.032;15.398;2023-01-25T09:47:48;98901.06;;;3.83;100.00
12146;BME280;6136;47.032;15.398;2023-01-25T09:50:31;98895.69;;;3.92;100.00
12146;BME280;6136;47.032;15.398;2023-01-25T09:56:09;98895.63;;;3.97;100.00
12146;BME280;6136;47.032;15.398;2023-01-25T09:58:43;98893.13;;;3.87;100.00
12146;BME280;6136;47.032;15.398;2023-01-25T10:01:24;98881.75;;;3.87;100.00
12146;BME280;6136;47.032;15.398;2023-01-25T10:04:11;98893.75;;;4.03;100.00
12146;BME280;6136;47.032;15.398;2023-01-25T10:06:42;98882.53;;;3.95;100.00
12146;BME280;6136;47.032;15.398;2023-01-25T10:09:32;98879.75;;;4.06;100.00
12146;BME280;6136;47.032;15.398;2023-01-25T10:12:11;98869.97;;;4.15;100.00
12146;BME280;6136;47.032;15.398;2023-01-25T10:14:41;98869.25;;;4.06;100.00
12146;BME280;6136;47.032;15.398;2023-01-25T10:17:14;98863.00;;;4.14;100.00
12146;BME280;6136;47.032;15.398;2023-01-25T10:19:53;98867.41;;;4.12;100.00
12146;BME280;6136;47.032;15.398;2023-01-25T10:22:27;98863.06;;;4.10;100.00
12146;BME280;6136;47.032;15.398;2023-01-25T10:25:10;98851.81;;;4.00;100.00
12146;BME280;6136;47.032;15.398;2023-01-25T10:27:43;98845.97;;;3.84;100.00
12146;BME280;6136;47.032;15.398;2023-01-25T10:30:24;98844.41;;;3.71;100.00
12146;BME280;6136;47.032;15.398;2023-01-25T10:32:57;98838.34;;;3.68;100.00
12146;BME280;6136;47.032;15.398;2023-01-25T10:35:29;98840.13;;;3.66;100.00
12146;BME280;6136;47.032;15.398;2023-01-25T10:38:12;98827.13;;;3.58;100.00
12146;BME280;6136;47.032;15.398;2023-01-25T10:40:44;98834.94;;;3.63;100.00
12146;BME280;6136;47.032;15.398;2023-01-25T10:43:16;98834.09;;;3.61;100.00
12146;BME280;6136;47.032;15.398;2023-01-25T10:45:45;98830.63;;;3.57;100.00
12146;BME280;6136;47.032;15.398;2023-01-25T10:48:18;98820.22;;;3.54;100.00
12146;BME280;6136;47.032;15.398;2023-01-25T10:50:50;98828.00;;;3.59;100.00
12146;BME280;6136;47.032;15.398;2023-01-25T10:53:27;98822.75;;;3.59;100.00
12146;BME280;6136;47.032;15.398;2023-01-25T10:56:02;98821.03;;;3.56;100.00
12146;BME280;6136;47.032;15.398;2023-01-25T10:58:35;98818.25;;;3.68;100.00
12146;BME280;6136;47.032;15.398;2023-01-25T11:01:06;98811.16;;;3.76;100.00
12146;BME280;6136;47.032;15.398;2023-01-25T11:03:38;98804.09;;;3.80;100.00
12146;BME280;6136;47.032;15.398;2023-01-25T11:06:07;98793.56;;;3.83;100.00
12146;BME280;6136;47.032;15.398;2023-01-25T11:08:37;98790.06;;;3.82;100.00
12146;BME280;6136;47.032;15.398;2023-01-25T11:11:22;98791.06;;;3.74;100.00
12146;BME280;6136;47.032;15.398;2023-01-25T11:13:52;98789.31;;;3.74;100.00
12146;BME280;6136;47.032;15.398;2023-01-25T11:16:28;98788.38;;;3.78;100.00
12146;BME280;6136;47.032;15.398;2023-01-25T11:18:59;98789.34;;;3.71;100.00
12146;BME280;6136;47.032;15.398;2023-01-25T11:21:30;98781.47;;;3.74;100.00
12146;BME280;6136;47.032;15.398;2023-01-25T11:24:14;98773.56;;;3.76;100.00
12146;BME280;6136;47.032;15.398;2023-01-25T11:26:44;98772.84;;;3.66;100.00
12146;BME280;6136;47.032;15.398;2023-01-25T11:29:14;98769.41;;;3.63;100.00
12146;BME280;6136;47.032;15.398;2023-01-25T11:31:47;98772.00;;;3.64;100.00
12146;BME280;6136;47.032;15.398;2023-01-25T11:34:18;98759.84;;;3.59;100.00
12146;BME280;6136;47.032;15.398;2023-01-25T11:37:00;98753.69;;;3.63;100.00
12146;BME280;6136;47.032;15.398;2023-01-25T11:39:41;98743.13;;;3.67;100.00
12146;BME280;6136;47.032;15.398;2023-01-25T11:42:22;98745.75;;;3.66;100.00
12146;BME280;6136;47.032;15.398;2023-01-25T11:47:59;98737.03;;;3.64;100.00
12146;BME280;6136;47.032;15.398;2023-01-25T11:50:38;98731.84;;;3.62;100.00
12146;BME280;6136;47.032;15.398;2023-01-25T11:53:22;98727.47;;;3.63;100.00
12146;BME280;6136;47.032;15.398;2023-01-25T11:55:58;98718.66;;;3.68;100.00
12146;BME280;6136;47.032;15.398;2023-01-25T11:58:38;98715.19;;;3.66;100.00
12146;BME280;6136;47.032;15.398;2023-01-25T12:01:14;98712.56;;;3.66;100.00
12146;BME280;6136;47.032;15.398;2023-01-25T12:04:17;98714.19;;;3.72;100.00
12146;BME280;6136;47.032;15.398;2023-01-25T12:06:57;98709.06;;;3.66;100.00
12146;BME280;6136;47.032;15.398;2023-01-25T12:09:36;98703.91;;;3.63;100.00
12146;BME280;6136;47.032;15.398;2023-01-25T12:12:15;98702.06;;;3.68;100.00
12146;BME280;6136;47.032;15.398;2023-01-25T12:15:01;98702.16;;;3.62;100.00
12146;BME280;6136;47.032;15.398;2023-01-25T12:17:44;98696.09;;;3.58;100.00
12146;BME280;6136;47.032;15.398;2023-01-25T12:20:35;98697.81;;;3.59;100.00
12146;BME280;6136;47.032;15.398;2023-01-25T12:23:30;98699.53;;;3.62;100.00
12146;BME280;6136;47.032;15.398;2023-01-25T12:26:12;98682.97;;;3.58;100.00
12146;BME280;6136;47.032;15.398;2023-01-25T12:28:46;98682.13;;;3.58;100.00
12146;BME280;6136;47.032;15.398;2023-01-25T12:31:17;98674.31;;;3.55;100.00
12146;BME280;6136;47.032;15.398;2023-01-25T12:33:51;98662.00;;;3.58;100.00
12146;BME280;6136;47.032;15.398;2023-01-25T12:36:26;98664.84;;;3.46;100.00
12146;BME280;6136;47.032;15.398;2023-01-25T12:38:59;98661.41;;;3.41;100.00
12146;BME280;6136;47.032;15.398;2023-01-25T12:41:35;98659.59;;;3.47;100.00
12146;BME280;6136;47.032;15.398;2023-01-25T12:44:11;98653.47;;;3.47;100.00
12146;BME280;6136;47.032;15.398;2023-01-25T12:46:44;98650.69;;;3.56;100.00
12146;BME280;6136;47.032;15.398;2023-01-25T12:49:21;98653.34;;;3.55;100.00
12146;BME280;6136;47.032;15.398;2023-01-25T12:51:51;98644.66;;;3.53;100.00
12146;BME280;6136;47.032;15.398;2023-01-25T12:54:28;98641.03;;;3.60;100.00
12146;BME280;6136;47.032;15.398;2023-01-25T12:57:09;98632.22;;;3.64;100.00
12146;BME280;6136;47.032;15.398;2023-01-25T12:59:47;98633.28;;;3.54;100.00
12146;BME280;6136;47.032;15.398;2023-01-25T13:02:46;98623.72;;;3.49;100.00
12146;BME280;6136;47.032;15.398;2023-01-25T13:05:24;98628.81;;;3.59;100.00
12146;BME280;6136;47.032;15.398;2023-01-25T13:08:02;98624.31;;;3.65;100.00
12146;BME280;6136;47.032;15.398;2023-01-25T13:10:37;98619.78;;;3.75;100.00
12146;BME280;6136;47.032;15.398;2023-01-25T13:13:19;98618.00;;;3.77;100.00
12146;BME280;6136;47.032;15.398;2023-01-25T13:15:48;98618.81;;;3.79;100.00
12146;BME280;6136;47.032;15.398;2023-01-25T13:18:37;98623.28;;;3.74;100.00
12146;BME280;6136;47.032;15.398;2023-01-25T13:21:11;98611.88;;;3.78;100.00
12146;BME280;6136;47.032;15.398;2023-01-25T13:24:12;98611.91;;;3.75;100.00
12146;BME280;6136;47.032;15.398;2023-01-25T13:26:58;98612.97;;;3.65;100.00
12146;BME280;6136;47.032;15.398;2023-01-25T13:29:53;98605.84;;;3.73;100.00
12146;BME280;6136;47.032;15.398;2023-01-25T13:35:40;98605.78;;;3.76;100.00
12146;BME280;6136;47.032;15.398;2023-01-25T13:38:25;98609.47;;;3.64;100.00